sensor_id;sensor_type;location;lat;lon;timestamp;pressure;altitude;pressure_sealevel;temperature;humidity
21779;BME280;11050;52.222;20.916;2023-06-26T00:01:17;100100.56;;;17.66;99.64
21779;BME280;11050;52.222;20.916;2023-06-26T00:03:46;100097.81;;;17.66;98.86
21779;BME280;11050;52.222;20.916;2023-06-26T00:06:13;100096.44;;;17.64;98.56
21779;BME280;11050;52.222;20.916;2023-06-26T00:08:39;100090.16;;;17.58;100.00
21779;BME280;11050;52.222;20.916;2023-06-26T00:11:05;100092.50;;;17.51;99.87
21779;BME280;11050;52.222;20.916;2023-06-26T00:13:31;100086.13;;;17.51;100.00
21779;BME280;11050;52.222;20.916;2023-06-26T00:15:57;100092.53;;;17.46;100.00
21779;BME280;11050;52.222;20.916;2023-06-26T00:18:23;100094.28;;;17.42;100.00
21779;BME280;11050;52.222;20.916;2023-06-26T00:20:49;100098.00;;;17.38;100.00
21779;BME280;11050;52.222;20.916;2023-06-26T00:23:18;100089.22;;;17.31;100.00
21779;BME280;11050;52.222;20.916;2023-06-26T00:25:44;100096.13;;;17.33;100.00
21779;BME280;11050;52.222;20.916;2023-06-26T00:28:10;100092.22;;;17.34;100.00
21779;BME280;11050;52.222;20.916;2023-06-26T00:30:36;100095.53;;;17.36;99.82
21779;BME280;11050;52.222;20.916;2023-06-26T00:33:01;100096.19;;;17.28;100.00
21779;BME280;11050;52.222;20.916;2023-06-26T00:35:27;100087.72;;;17.20;100.00
21779;BME280;11050;52.222;20.916;2023-06-26T00:37:53;100091.63;;;17.19;99.72
21779;BME280;11050;52.222;20.916;2023-06-26T00:40:19;100082.88;;;17.12;99.40
21779;BME280;11050;52.222;20.916;2023-06-26T00:42:45;100092.78;;;17.18;100.00
21779;BME280;11050;52.222;20.916;2023-06-26T00:45:10;100090.59;;;17.15;100.00
21779;BME280;11050;52.222;20.916;2023-06-26T00:47:37;100086.19;;;17.14;100.00
21779;BME280;11050;52.222;20.916;2023-06-26T00:50:04;100086.19;;;17.14;100.00
21779;BME280;11050;52.222;20.916;2023-06-26T00:52:31;100080.09;;;17.12;100.00
21779;BME280;11050;52.222;20.916;2023-06-26T00:54:58;100078.53;;;17.05;100.00
21779;BME280;11050;52.222;20.916;2023-06-26T00:57:23;100080.88;;;16.98;100.00
21779;BME280;11050;52.222;20.916;2023-06-26T00:59:50;100073.66;;;16.97;100.00
21779;BME280;11050;52.222;20.916;2023-06-26T01:02:16;100067.75;;;16.85;100.00
21779;BME280;11050;52.222;20.916;2023-06-26T01:04:48;100070.75;;;16.89;100.00
21779;BME280;11050;52.222;20.916;2023-06-26T01:07:16;100073.22;;;16.90;100.00
21779;BME280;11050;52.222;20.916;2023-06-26T01:09:46;100065.34;;;16.79;100.00
21779;BME280;11050;52.222;20.916;2023-06-26T01:12:12;100060.97;;;16.73;100.00
21779;BME280;11050;52.222;20.916;2023-06-26T01:14:38;100070.13;;;16.73;100.00
21779;BME280;11050;52.222;20.916;2023-06-26T01:17:05;100059.69;;;16.65;100.00
21779;BME280;11050;52.222;20.916;2023-06-26T01:19:32;100065.34;;;16.60;100.00
21779;BME280;11050;52.222;20.916;2023-06-26T01:28:24;100051.53;;;16.55;100.00
21779;BME280;11050;52.222;20.916;2023-06-26T01:30:51;100061.50;;;16.56;100.00
21779;BME280;11050;52.222;20.916;2023-06-26T01:33:17;100057.16;;;16.50;100.00
21779;BME280;11050;52.222;20.916;2023-06-26T01:35:43;100058.03;;;16.46;100.00
21779;BME280;11050;52.222;20.916;2023-06-26T01:38:19;100055.53;;;16.44;100.00
21779;BME280;11050;52.222;20.916;2023-06-26T01:40:46;100056.66;;;16.43;100.00
21779;BME280;11050;52.222;20.916;2023-06-26T01:46:38;100054.53;;;16.35;100.00
21779;BME280;11050;52.222;20.916;2023-06-26T01:49:47;100046.84;;;16.32;100.00
21779;BME280;11050;52.222;20.916;2023-06-26T01:52:23;100046.59;;;16.29;100.00
21779;BME280;11050;52.222;20.916;2023-06-26T01:57:56;100035.88;;;16.22;100.00
21779;BME280;11050;52.222;20.916;2023-06-26T02:00:24;100043.13;;;16.18;100.00
21779;BME280;11050;52.222;20.916;2023-06-26T02:02:51;100046.59;;;16.10;100.00
21779;BME280;11050;52.222;20.916;2023-06-26T02:05:17;100045.75;;;16.09;100.00
21779;BME280;11050;52.222;20.916;2023-06-26T02:07:43;100045.50;;;16.06;100.00
21779;BME280;11050;52.222;20.916;2023-06-26T02:10:10;100039.22;;;16.00;100.00
21779;BME280;11050;52.222;20.916;2023-06-26T02:12:37;100038.38;;;16.00;100.00
21779;BME280;11050;52.222;20.916;2023-06-26T02:15:03;100040.53;;;16.03;100.00
21779;BME280;11050;52.222;20.916;2023-06-26T02:17:30;100045.81;;;16.04;100.00
21779;BME280;11050;52.222;20.916;2023-06-26T02:19:56;100043.53;;;16.06;100.00
21779;BME280;11050;52.222;20.916;2023-06-26T02:22:22;100043.28;;;16.08;100.00
21779;BME280;11050;52.222;20.916;2023-06-26T02:24:48;100045.13;;;16.12;100.00
21779;BME280;11050;52.222;20.916;2023-06-26T02:27:13;100039.25;;;16.19;100.00
21779;BME280;11050;52.222;20.916;2023-06-26T02:29:40;100038.88;;;16.26;100.00
21779;BME280;11050;52.222;20.916;2023-06-26T02:32:08;100035.00;;;16.27;100.00
21779;BME280;11050;52.222;20.916;2023-06-26T02:34:35;100033.19;;;16.36;100.00
21779;BME280;11050;52.222;20.916;2023-06-26T02:37:01;100028.19;;;16.38;100.00
21779;BME280;11050;52.222;20.916;2023-06-26T02:39:27;100027.88;;;16.39;100.00
21779;BME280;11050;52.222;20.916;2023-06-26T02:41:53;100028.09;;;16.43;100.00
21779;BME280;11050;52.222;20.916;2023-06-26T02:44:19;100028.59;;;16.50;100.00
21779;BME280;11050;52.222;20.916;2023-06-26T02:46:45;100034.06;;;16.55;100.00
21779;BME280;11050;52.222;20.916;2023-06-26T02:49:11;100031.00;;;16.56;100.00
21779;BME280;11050;52.222;20.916;2023-06-26T02:51:36;100038.13;;;16.62;100.00
21779;BME280;11050;52.222;20.916;2023-06-26T02:54:03;100037.28;;;16.62;100.00
21779;BME280;11050;52.222;20.916;2023-06-26T02:56:29;100039.00;;;16.58;100.00
21779;BME280;11050;52.222;20.916;2023-06-26T02:58:55;100033.53;;;16.53;100.00
21779;BME280;11050;52.222;20.916;2023-06-26T03:01:21;100038.78;;;16.54;100.00
21779;BME280;11050;52.222;20.916;2023-06-26T03:03:47;100037.06;;;16.58;100.00
21779;BME280;11050;52.222;20.916;2023-06-26T03:06:14;100035.88;;;16.64;100.00
21779;BME280;11050;52.222;20.916;2023-06-26T03:08:40;100035.19;;;16.72;100.00
21779;BME280;11050;52.222;20.916;2023-06-26T03:11:10;100049.00;;;16.77;100.00
21779;BME280;11050;52.222;20.916;2023-06-26T03:13:36;100036.75;;;16.78;100.00
21779;BME280;11050;52.222;20.916;2023-06-26T03:16:04;100033.91;;;16.83;100.00
21779;BME280;11050;52.222;20.916;2023-06-26T03:18:30;100039.06;;;16.90;100.00
21779;BME280;11050;52.222;20.916;2023-06-26T03:20:56;100038.47;;;16.93;100.00
21779;BME280;11050;52.222;20.916;2023-06-26T03:23:23;100037.25;;;16.99;100.00
21779;BME280;11050;52.222;20.916;2023-06-26T03:25:49;100039.13;;;17.03;100.00
21779;BME280;11050;52.222;20.916;2023-06-26T03:28:15;100038.75;;;17.10;100.00
21779;BME280;11050;52.222;20.916;2023-06-26T03:30:41;100049.47;;;17.17;100.00
21779;BME280;11050;52.222;20.916;2023-06-26T03:33:07;100052.66;;;17.24;100.00
21779;BME280;11050;52.222;20.916;2023-06-26T03:35:33;100038.97;;;17.27;100.00
21779;BME280;11050;52.222;20.916;2023-06-26T03:37:59;100046.41;;;17.32;100.00
21779;BME280;11050;52.222;20.916;2023-06-26T03:40:26;100047.56;;;17.31;100.00
21779;BME280;11050;52.222;20.916;2023-06-26T03:42:52;100049.72;;;17.34;100.00
21779;BME280;11050;52.222;20.916;2023-06-26T03:45:17;100042.94;;;17.40;100.00
21779;BME280;11050;52.222;20.916;2023-06-26T03:47:45;100052.53;;;17.47;99.45
21779;BME280;11050;52.222;20.916;2023-06-26T03:50:17;100047.75;;;17.53;99.79
21779;BME280;11050;52.222;20.916;2023-06-26T03:52:43;100037.47;;;17.53;98.99
21779;BME280;11050;52.222;20.916;2023-06-26T03:55:09;100050.84;;;17.65;98.48
21779;BME280;11050;52.222;20.916;2023-06-26T03:57:35;100050.44;;;17.71;97.52
21779;BME280;11050;52.222;20.916;2023-06-26T04:00:01;100045.59;;;17.77;96.46
21779;BME280;11050;52.222;20.916;2023-06-26T04:02:26;100044.69;;;17.81;96.16
21779;BME280;11050;52.222;20.916;2023-06-26T04:04:52;100046.75;;;17.89;95.97
21779;BME280;11050;52.222;20.916;2023-06-26T04:07:19;100055.81;;;17.95;95.42
21779;BME280;11050;52.222;20.916;2023-06-26T04:09:45;100042.13;;;17.98;94.39
21779;BME280;11050;52.222;20.916;2023-06-26T04:12:10;100048.50;;;17.99;95.02
21779;BME280;11050;52.222;20.916;2023-06-26T04:14:36;100051.91;;;18.10;94.20
21779;BME280;11050;52.222;20.916;2023-06-26T04:17:02;100051.16;;;18.18;93.76
21779;BME280;11050;52.222;20.916;2023-06-26T04:19:30;100057.69;;;18.27;93.15
21779;BME280;11050;52.222;20.916;2023-06-26T04:21:56;100057.25;;;18.33;92.66
21779;BME280;11050;52.222;20.916;2023-06-26T04:24:22;100058.59;;;18.36;92.39
21779;BME280;11050;52.222;20.916;2023-06-26T04:26:48;100044.88;;;18.39;92.71
21779;BME280;11050;52.222;20.916;2023-06-26T04:29:14;100054.06;;;18.53;92.65
21779;BME280;11050;52.222;20.916;2023-06-26T04:31:39;100053.50;;;18.65;91.82
21779;BME280;11050;52.222;20.916;2023-06-26T04:34:06;100052.75;;;18.73;90.89
21779;BME280;11050;52.222;20.916;2023-06-26T04:36:31;100052.72;;;18.86;90.07
21779;BME280;11050;52.222;20.916;2023-06-26T04:38:59;100057.41;;;19.00;89.78
21779;BME280;11050;52.222;20.916;2023-06-26T04:41:25;100057.69;;;19.12;88.98
21779;BME280;11050;52.222;20.916;2023-06-26T04:43:51;100050.22;;;19.21;87.70
21779;BME280;11050;52.222;20.916;2023-06-26T04:46:17;100051.63;;;19.32;87.52
21779;BME280;11050;52.222;20.916;2023-06-26T04:48:42;100060.03;;;19.40;86.53
21779;BME280;11050;52.222;20.916;2023-06-26T04:51:11;100045.34;;;19.48;85.98
21779;BME280;11050;52.222;20.916;2023-06-26T04:53:36;100053.94;;;19.60;85.02
21779;BME280;11050;52.222;20.916;2023-06-26T04:56:03;100050.88;;;19.70;84.85
21779;BME280;11050;52.222;20.916;2023-06-26T04:58:29;100058.13;;;19.80;84.03
21779;BME280;11050;52.222;20.916;2023-06-26T05:00:54;100058.00;;;19.85;83.38
21779;BME280;11050;52.222;20.916;2023-06-26T05:03:21;100059.81;;;19.90;83.61
21779;BME280;11050;52.222;20.916;2023-06-26T05:05:47;100056.94;;;20.03;82.95
21779;BME280;11050;52.222;20.916;2023-06-26T05:08:24;100056.81;;;20.17;82.04
21779;BME280;11050;52.222;20.916;2023-06-26T05:10:52;100060.66;;;20.21;81.58
21779;BME280;11050;52.222;20.916;2023-06-26T05:13:19;100056.56;;;20.27;81.67
21779;BME280;11050;52.222;20.916;2023-06-26T05:15:46;100056.25;;;20.37;80.37
21779;BME280;11050;52.222;20.916;2023-06-26T05:18:12;100058.91;;;20.50;80.14
21779;BME280;11050;52.222;20.916;2023-06-26T05:20:38;100052.16;;;20.51;79.89
21779;BME280;11050;52.222;20.916;2023-06-26T05:23:05;100060.09;;;20.66;80.00
21779;BME280;11050;52.222;20.916;2023-06-26T05:25:32;100062.72;;;20.71;79.67
21779;BME280;11050;52.222;20.916;2023-06-26T05:27:59;100057.31;;;20.75;79.50
21779;BME280;11050;52.222;20.916;2023-06-26T05:30:26;100054.50;;;20.84;79.12
21779;BME280;11050;52.222;20.916;2023-06-26T05:32:54;100051.91;;;20.96;78.93
21779;BME280;11050;52.222;20.916;2023-06-26T05:35:23;100047.16;;;21.05;78.41
21779;BME280;11050;52.222;20.916;2023-06-26T05:37:50;100044.88;;;21.15;77.79
21779;BME280;11050;52.222;20.916;2023-06-26T05:40:19;100041.22;;;21.32;77.15
21779;BME280;11050;52.222;20.916;2023-06-26T05:42:46;100045.47;;;21.46;76.15
21779;BME280;11050;52.222;20.916;2023-06-26T05:45:12;100047.59;;;21.58;75.69
21779;BME280;11050;52.222;20.916;2023-06-26T05:47:38;100045.72;;;21.70;74.59
21779;BME280;11050;52.222;20.916;2023-06-26T05:50:05;100051.97;;;21.85;73.28
21779;BME280;11050;52.222;20.916;2023-06-26T05:52:31;100049.13;;;21.93;71.53
21779;BME280;11050;52.222;20.916;2023-06-26T05:54:57;100048.09;;;22.06;70.59
21779;BME280;11050;52.222;20.916;2023-06-26T05:57:27;100050.19;;;22.18;69.90
21779;BME280;11050;52.222;20.916;2023-06-26T05:59:54;100046.19;;;22.27;69.76
21779;BME280;11050;52.222;20.916;2023-06-26T06:02:20;100054.00;;;22.42;69.15
21779;BME280;11050;52.222;20.916;2023-06-26T06:04:46;100047.84;;;22.57;67.88
21779;BME280;11050;52.222;20.916;2023-06-26T06:07:13;100048.91;;;22.74;66.93
21779;BME280;11050;52.222;20.916;2023-06-26T06:09:39;100051.88;;;22.89;66.48
21779;BME280;11050;52.222;20.916;2023-06-26T06:12:06;100047.19;;;23.02;65.86
21779;BME280;11050;52.222;20.916;2023-06-26T06:14:33;100046.09;;;23.15;65.70
21779;BME280;11050;52.222;20.916;2023-06-26T06:17:00;100051.59;;;23.23;65.71
21779;BME280;11050;52.222;20.916;2023-06-26T06:19:26;100052.03;;;23.34;63.62
21779;BME280;11050;52.222;20.916;2023-06-26T06:21:52;100047.16;;;23.43;63.70
21779;BME280;11050;52.222;20.916;2023-06-26T06:24:18;100051.03;;;23.50;63.30
21779;BME280;11050;52.222;20.916;2023-06-26T06:26:44;100051.22;;;23.66;61.59
21779;BME280;11050;52.222;20.916;2023-06-26T06:29:10;100042.81;;;23.78;60.35
21779;BME280;11050;52.222;20.916;2023-06-26T06:31:36;100043.31;;;23.92;59.95
21779;BME280;11050;52.222;20.916;2023-06-26T06:34:01;100037.56;;;24.01;59.07
21779;BME280;11050;52.222;20.916;2023-06-26T06:36:28;100040.66;;;24.08;60.10
21779;BME280;11050;52.222;20.916;2023-06-26T06:38:53;100038.69;;;24.20;58.90
21779;BME280;11050;52.222;20.916;2023-06-26T06:41:20;100034.47;;;24.26;59.06
21779;BME280;11050;52.222;20.916;2023-06-26T06:43:46;100048.97;;;24.40;58.56
21779;BME280;11050;52.222;20.916;2023-06-26T06:46:12;100041.69;;;24.52;55.88
21779;BME280;11050;52.222;20.916;2023-06-26T06:48:38;100027.28;;;24.65;56.92
21779;BME280;11050;52.222;20.916;2023-06-26T06:51:03;100037.47;;;24.82;55.47
21779;BME280;11050;52.222;20.916;2023-06-26T06:53:30;100033.69;;;24.90;51.99
21779;BME280;11050;52.222;20.916;2023-06-26T06:55:56;100034.84;;;25.01;52.11
21779;BME280;11050;52.222;20.916;2023-06-26T06:58:22;100036.22;;;25.07;52.12
21779;BME280;11050;52.222;20.916;2023-06-26T07:00:48;100031.25;;;25.16;51.56
21779;BME280;11050;52.222;20.916;2023-06-26T07:03:15;100035.97;;;25.12;49.92
21779;BME280;11050;52.222;20.916;2023-06-26T07:05:44;100035.66;;;25.29;50.96
21779;BME280;11050;52.222;20.916;2023-06-26T07:08:10;100037.72;;;25.44;48.33
21779;BME280;11050;52.222;20.916;2023-06-26T07:10:36;100035.47;;;25.50;46.96
21779;BME280;11050;52.222;20.916;2023-06-26T07:13:02;100034.13;;;25.59;47.56
21779;BME280;11050;52.222;20.916;2023-06-26T07:15:27;100039.94;;;25.66;47.20
21779;BME280;11050;52.222;20.916;2023-06-26T07:17:53;100028.91;;;25.73;46.55
21779;BME280;11050;52.222;20.916;2023-06-26T07:20:19;100016.72;;;25.69;46.95
21779;BME280;11050;52.222;20.916;2023-06-26T07:22:45;100029.19;;;25.84;46.18
21779;BME280;11050;52.222;20.916;2023-06-26T07:25:11;100029.03;;;25.92;46.97
21779;BME280;11050;52.222;20.916;2023-06-26T07:27:38;100026.66;;;25.94;45.38
21779;BME280;11050;52.222;20.916;2023-06-26T07:30:05;100038.09;;;26.01;44.74
21779;BME280;11050;52.222;20.916;2023-06-26T07:32:31;100027.50;;;26.10;44.31
21779;BME280;11050;52.222;20.916;2023-06-26T07:34:57;100026.94;;;26.20;45.21
21779;BME280;11050;52.222;20.916;2023-06-26T07:37:22;100030.22;;;26.22;45.47
21779;BME280;11050;52.222;20.916;2023-06-26T07:39:49;100030.75;;;26.28;43.92
21779;BME280;11050;52.222;20.916;2023-06-26T07:42:15;100029.38;;;26.38;43.94
21779;BME280;11050;52.222;20.916;2023-06-26T07:44:44;100026.53;;;26.53;44.29
21779;BME280;11050;52.222;20.916;2023-06-26T07:47:10;100017.53;;;26.48;43.68
21779;BME280;11050;52.222;20.916;2023-06-26T07:49:36;100023.97;;;26.64;43.48
21779;BME280;11050;52.222;20.916;2023-06-26T07:52:03;100027.25;;;26.66;43.01
21779;BME280;11050;52.222;20.916;2023-06-26T07:54:29;100019.41;;;26.75;44.17
21779;BME280;11050;52.222;20.916;2023-06-26T07:57:00;100023.78;;;26.72;44.16
21779;BME280;11050;52.222;20.916;2023-06-26T07:59:29;100031.00;;;26.54;45.35
21779;BME280;11050;52.222;20.916;2023-06-26T08:01:57;100025.72;;;26.53;44.78
21779;BME280;11050;52.222;20.916;2023-06-26T08:04:25;100028.72;;;26.60;44.84
21779;BME280;11050;52.222;20.916;2023-06-26T08:06:54;100029.59;;;26.64;44.49
21779;BME280;11050;52.222;20.916;2023-06-26T08:09:27;100022.84;;;26.68;44.24
21779;BME280;11050;52.222;20.916;2023-06-26T08:11:54;100019.94;;;26.65;43.89
21779;BME280;11050;52.222;20.916;2023-06-26T08:14:20;100025.66;;;26.84;44.30
21779;BME280;11050;52.222;20.916;2023-06-26T08:16:47;100020.34;;;26.98;43.18
21779;BME280;11050;52.222;20.916;2023-06-26T08:19:14;100016.19;;;27.11;42.55
21779;BME280;11050;52.222;20.916;2023-06-26T08:21:42;100023.59;;;27.19;44.12
21779;BME280;11050;52.222;20.916;2023-06-26T08:24:09;100014.63;;;27.33;42.40
21779;BME280;11050;52.222;20.916;2023-06-26T08:26:36;100004.75;;;27.42;40.61
21779;BME280;11050;52.222;20.916;2023-06-26T08:29:03;100014.94;;;27.47;39.66
21779;BME280;11050;52.222;20.916;2023-06-26T08:31:38;100018.31;;;27.56;39.94
21779;BME280;11050;52.222;20.916;2023-06-26T08:34:05;100006.94;;;27.71;36.58
21779;BME280;11050;52.222;20.916;2023-06-26T08:36:31;100008.03;;;28.08;36.40
21779;BME280;11050;52.222;20.916;2023-06-26T08:38:58;100007.72;;;28.40;35.78
21779;BME280;11050;52.222;20.916;2023-06-26T08:41:24;100004.97;;;28.69;34.65
21779;BME280;11050;52.222;20.916;2023-06-26T08:43:50;100001.66;;;28.64;32.11
21779;BME280;11050;52.222;20.916;2023-06-26T08:46:18;100007.44;;;28.22;31.92
21779;BME280;11050;52.222;20.916;2023-06-26T08:48:56;100006.50;;;27.92;34.38
21779;BME280;11050;52.222;20.916;2023-06-26T08:51:25;100003.09;;;28.28;34.98
21779;BME280;11050;52.222;20.916;2023-06-26T08:53:59;100007.31;;;28.64;33.93
21779;BME280;11050;52.222;20.916;2023-06-26T08:56:48;100008.19;;;28.97;33.51
21779;BME280;11050;52.222;20.916;2023-06-26T08:59:16;100002.94;;;28.96;33.86
21779;BME280;11050;52.222;20.916;2023-06-26T09:01:42;100003.25;;;28.61;33.50
21779;BME280;11050;52.222;20.916;2023-06-26T09:04:08;100009.91;;;28.50;34.62
21779;BME280;11050;52.222;20.916;2023-06-26T09:06:34;99998.44;;;28.39;35.82
21779;BME280;11050;52.222;20.916;2023-06-26T09:08:59;100004.38;;;28.34;36.62
21779;BME280;11050;52.222;20.916;2023-06-26T09:11:25;100008.38;;;28.30;35.52
21779;BME280;11050;52.222;20.916;2023-06-26T09:13:52;100003.22;;;28.35;35.76
21779;BME280;11050;52.222;20.916;2023-06-26T09:16:18;99995.63;;;28.65;34.91
21779;BME280;11050;52.222;20.916;2023-06-26T09:18:46;99990.22;;;29.13;35.05
21779;BME280;11050;52.222;20.916;2023-06-26T09:21:12;99991.63;;;29.29;34.37
21779;BME280;11050;52.222;20.916;2023-06-26T09:23:40;99982.53;;;29.46;33.90
21779;BME280;11050;52.222;20.916;2023-06-26T09:26:07;99992.19;;;29.75;35.27
21779;BME280;11050;52.222;20.916;2023-06-26T09:28:34;99996.31;;;29.84;34.52
21779;BME280;11050;52.222;20.916;2023-06-26T09:31:07;99987.63;;;30.11;32.25
21779;BME280;11050;52.222;20.916;2023-06-26T09:33:36;99990.38;;;30.51;32.74
21779;BME280;11050;52.222;20.916;2023-06-26T09:36:08;99998.69;;;30.80;30.82
21779;BME280;11050;52.222;20.916;2023-06-26T09:38:37;99992.91;;;30.66;29.33
21779;BME280;11050;52.222;20.916;2023-06-26T09:41:03;99983.97;;;30.61;29.46
21779;BME280;11050;52.222;20.916;2023-06-26T09:43:29;99981.94;;;30.58;30.10
21779;BME280;11050;52.222;20.916;2023-06-26T09:45:56;99991.22;;;30.55;30.96
21779;BME280;11050;52.222;20.916;2023-06-26T09:48:22;100004.09;;;30.42;30.41
21779;BME280;11050;52.222;20.916;2023-06-26T09:50:48;99990.91;;;30.16;30.29
21779;BME280;11050;52.222;20.916;2023-06-26T09:53:15;99984.81;;;30.11;30.99
21779;BME280;11050;52.222;20.916;2023-06-26T09:55:41;99976.91;;;29.86;31.22
21779;BME280;11050;52.222;20.916;2023-06-26T09:58:11;99995.13;;;29.89;31.56
21779;BME280;11050;52.222;20.916;2023-06-26T10:00:41;99980.66;;;29.98;32.71
21779;BME280;11050;52.222;20.916;2023-06-26T10:03:09;99987.53;;;30.00;33.35
21779;BME280;11050;52.222;20.916;2023-06-26T10:05:35;99981.03;;;29.96;30.92
21779;BME280;11050;52.222;20.916;2023-06-26T10:08:02;99975.47;;;30.10;29.16
21779;BME280;11050;52.222;20.916;2023-06-26T10:10:29;99983.47;;;30.41;29.12
21779;BME280;11050;52.222;20.916;2023-06-26T10:13:03;99990.66;;;30.90;28.20
21779;BME280;11050;52.222;20.916;2023-06-26T10:15:30;99975.69;;;30.96;28.00
21779;BME280;11050;52.222;20.916;2023-06-26T10:17:57;99975.22;;;30.84;27.97
21779;BME280;11050;52.222;20.916;2023-06-26T10:20:24;99976.63;;;30.53;28.44
21779;BME280;11050;52.222;20.916;2023-06-26T10:22:53;99975.69;;;30.35;29.66
21779;BME280;11050;52.222;20.916;2023-06-26T10:25:24;99970.69;;;30.18;29.73
21779;BME280;11050;52.222;20.916;2023-06-26T10:27:57;99971.91;;;30.17;29.99
21779;BME280;11050;52.222;20.916;2023-06-26T10:30:29;99961.78;;;30.23;29.39
21779;BME280;11050;52.222;20.916;2023-06-26T10:32:57;99957.94;;;30.41;28.63
21779;BME280;11050;52.222;20.916;2023-06-26T10:35:24;99955.72;;;30.78;28.41
21779;BME280;11050;52.222;20.916;2023-06-26T10:37:51;99944.06;;;30.98;28.42
21779;BME280;11050;52.222;20.916;2023-06-26T10:40:28;99949.44;;;31.24;29.57
21779;BME280;11050;52.222;20.916;2023-06-26T10:43:15;99953.84;;;31.11;27.74
21779;BME280;11050;52.222;20.916;2023-06-26T10:45:48;99954.53;;;30.83;27.78
21779;BME280;11050;52.222;20.916;2023-06-26T10:48:18;99952.03;;;30.78;28.76
21779;BME280;11050;52.222;20.916;2023-06-26T10:50:47;99945.34;;;31.14;27.38
21779;BME280;11050;52.222;20.916;2023-06-26T10:56:01;99952.81;;;31.75;27.17
21779;BME280;11050;52.222;20.916;2023-06-26T10:58:48;99940.25;;;32.15;26.58
21779;BME280;11050;52.222;20.916;2023-06-26T11:01:22;99944.66;;;32.69;25.82
21779;BME280;11050;52.222;20.916;2023-06-26T11:06:26;99953.69;;;33.39;24.95
21779;BME280;11050;52.222;20.916;2023-06-26T11:08:54;99938.13;;;33.62;24.55
21779;BME280;11050;52.222;20.916;2023-06-26T11:14:22;99940.63;;;34.07;24.31
21779;BME280;11050;52.222;20.916;2023-06-26T11:16:48;99936.81;;;34.28;23.16
21779;BME280;11050;52.222;20.916;2023-06-26T11:19:19;99928.13;;;34.76;23.04
21779;BME280;11050;52.222;20.916;2023-06-26T11:21:45;99928.72;;;35.58;22.59
21779;BME280;11050;52.222;20.916;2023-06-26T11:24:13;99927.25;;;35.73;21.29
21779;BME280;11050;52.222;20.916;2023-06-26T11:26:40;99931.13;;;35.86;21.90
21779;BME280;11050;52.222;20.916;2023-06-26T11:29:08;99932.91;;;35.76;21.53
21779;BME280;11050;52.222;20.916;2023-06-26T11:31:38;99937.00;;;35.75;21.64
21779;BME280;11050;52.222;20.916;2023-06-26T11:34:07;99939.38;;;36.07;21.41
21779;BME280;11050;52.222;20.916;2023-06-26T11:36:34;99930.69;;;36.57;19.23
21779;BME280;11050;52.222;20.916;2023-06-26T11:39:06;99925.63;;;36.87;19.91
21779;BME280;11050;52.222;20.916;2023-06-26T11:41:35;99930.53;;;37.62;19.89
21779;BME280;11050;52.222;20.916;2023-06-26T11:44:04;99921.69;;;38.05;18.77
21779;BME280;11050;52.222;20.916;2023-06-26T11:46:31;99927.53;;;38.01;18.43
21779;BME280;11050;52.222;20.916;2023-06-26T11:48:57;99922.66;;;38.46;18.07
21779;BME280;11050;52.222;20.916;2023-06-26T11:51:23;99929.69;;;39.03;17.90
21779;BME280;11050;52.222;20.916;2023-06-26T11:53:49;99912.81;;;39.17;17.06
21779;BME280;11050;52.222;20.916;2023-06-26T11:56:17;99931.44;;;39.54;17.27
21779;BME280;11050;52.222;20.916;2023-06-26T11:59:15;99927.28;;;39.80;16.67
21779;BME280;11050;52.222;20.916;2023-06-26T12:01:43;99929.00;;;39.78;15.94
21779;BME280;11050;52.222;20.916;2023-06-26T12:04:17;99913.25;;;39.57;16.12
21779;BME280;11050;52.222;20.916;2023-06-26T12:06:50;99918.56;;;39.71;15.85
21779;BME280;11050;52.222;20.916;2023-06-26T12:09:18;99907.50;;;38.46;16.75
21779;BME280;11050;52.222;20.916;2023-06-26T12:11:48;99909.00;;;38.79;16.93
21779;BME280;11050;52.222;20.916;2023-06-26T12:14:15;99899.38;;;39.39;16.22
21779;BME280;11050;52.222;20.916;2023-06-26T12:16:42;99905.94;;;40.15;16.17
21779;BME280;11050;52.222;20.916;2023-06-26T12:19:08;99895.56;;;40.18;15.90
21779;BME280;11050;52.222;20.916;2023-06-26T12:24:04;99902.38;;;40.24;15.88
21779;BME280;11050;52.222;20.916;2023-06-26T12:26:31;99892.66;;;40.64;15.62
21779;BME280;11050;52.222;20.916;2023-06-26T12:29:14;99893.69;;;41.14;14.76
21779;BME280;11050;52.222;20.916;2023-06-26T12:31:53;99887.59;;;41.42;14.20
21779;BME280;11050;52.222;20.916;2023-06-26T12:34:40;99897.63;;;41.29;14.72
21779;BME280;11050;52.222;20.916;2023-06-26T12:37:09;99901.38;;;40.74;15.70
21779;BME280;11050;52.222;20.916;2023-06-26T12:42:18;99876.00;;;37.30;18.65
21779;BME280;11050;52.222;20.916;2023-06-26T12:44:44;99876.13;;;36.01;20.65
21779;BME280;11050;52.222;20.916;2023-06-26T12:47:10;99865.28;;;35.36;21.87
21779;BME280;11050;52.222;20.916;2023-06-26T12:49:41;99867.19;;;35.19;21.17
21779;BME280;11050;52.222;20.916;2023-06-26T12:52:12;99874.78;;;36.29;20.76
21779;BME280;11050;52.222;20.916;2023-06-26T12:54:41;99865.16;;;35.96;20.37
21779;BME280;11050;52.222;20.916;2023-06-26T12:57:08;99859.75;;;35.25;21.46
21779;BME280;11050;52.222;20.916;2023-06-26T12:59:36;99859.13;;;35.38;21.14
21779;BME280;11050;52.222;20.916;2023-06-26T13:02:03;99851.44;;;35.35;21.13
21779;BME280;11050;52.222;20.916;2023-06-26T13:04:29;99839.78;;;35.98;20.37
21779;BME280;11050;52.222;20.916;2023-06-26T13:06:56;99844.56;;;37.06;19.01
21779;BME280;11050;52.222;20.916;2023-06-26T13:09:24;99845.13;;;37.85;19.21